Time;durP1;ratioP1;P1;durP2;ratioP2;P2;SDS_P1;SDS_P2;PMS_P1;PMS_P2;Temp;Humidity;BMP_temperature;BMP_pressure;BME280_temperature;BME280_humidity;BME280_pressure;Samples;Min_cycle;Max_cycle;Signal;HPM_P1;HPM_P2
2021/07/21 07:05:28;;;;;;;12.45;7.18;;;19.70;82.90;;;;;;3575467;39;20138;-62
2021/07/21 07:08:19;;;;;;;10.40;7.40;;;19.90;84.60;;;;;;3575555;40;20115;-62
2021/07/21 07:11:03;;;;;;;12.82;7.82;;;20.30;82.70;;;;;;3573651;40;20096;-63
2021/07/21 07:13:29;;;;;;;12.23;7.18;;;20.70;80.10;;;;;;3576299;40;20032;-62
2021/07/21 07:15:55;;;;;;;12.00;8.07;;;21.10;78.80;;;;;;3574876;40;20048;-62
2021/07/21 07:18:21;;;;;;;10.02;7.28;;;21.30;77.00;;;;;;3575156;40;20029;-62
2021/07/21 07:20:48;;;;;;;13.10;7.30;;;21.50;76.40;;;;;;3574214;40;20029;-63
2021/07/21 07:23:14;;;;;;;12.35;7.57;;;21.60;74.80;;;;;;3574000;40;20040;-63
2021/07/21 07:25:41;;;;;;;10.40;7.50;;;21.70;74.50;;;;;;3574351;40;20042;-62
2021/07/21 07:28:07;;;;;;;9.55;7.40;;;21.80;74.60;;;;;;3570948;40;20052;-64
2021/07/21 07:30:35;;;;;;;9.45;7.05;;;21.80;73.30;;;;;;3571263;40;20098;-64
2021/07/21 07:33:01;;;;;;;10.45;7.60;;;21.80;73.80;;;;;;3572403;40;20088;-65
2021/07/21 07:35:27;;;;;;;15.93;8.07;;;21.80;73.80;;;;;;3573810;40;20067;-64
2021/07/21 07:37:53;;;;;;;10.50;7.22;;;21.80;72.70;;;;;;3571618;40;20073;-62
2021/07/21 07:40:19;;;;;;;9.70;7.60;;;21.80;73.00;;;;;;3573400;40;20028;-62
2021/07/21 07:42:45;;;;;;;10.60;7.00;;;21.80;73.80;;;;;;3573765;40;20025;-62
2021/07/21 07:45:13;;;;;;;10.40;7.75;;;21.80;73.00;;;;;;3572711;40;20024;-62
2021/07/21 07:47:38;;;;;;;10.60;7.13;;;21.90;73.40;;;;;;3573110;40;20084;-62
2021/07/21 07:50:07;;;;;;;11.35;7.22;;;21.80;73.20;;;;;;3572193;40;20037;-66
2021/07/21 07:52:33;;;;;;;10.85;7.13;;;21.90;73.00;;;;;;3573094;40;20403;-67
2021/07/21 07:54:59;;;;;;;8.32;6.70;;;21.90;72.90;;;;;;3573559;40;20026;-67
2021/07/21 07:57:25;;;;;;;9.65;7.82;;;22.00;73.10;;;;;;3571996;40;20361;-65
2021/07/21 07:59:51;;;;;;;9.30;7.22;;;22.10;73.00;;;;;;3575193;40;20028;-67
2021/07/21 08:02:17;;;;;;;9.48;7.13;;;22.20;72.00;;;;;;3570015;40;20043;-65
2021/07/21 08:04:42;;;;;;;11.38;6.70;;;22.30;72.00;;;;;;3574890;40;20817;-66
2021/07/21 08:07:08;;;;;;;9.75;7.22;;;22.40;71.20;;;;;;3570266;40;20399;-65
2021/07/21 08:09:33;;;;;;;10.48;6.82;;;22.50;70.30;;;;;;3571913;40;20095;-67
2021/07/21 08:11:59;;;;;;;8.82;6.50;;;22.50;69.20;;;;;;3573388;40;20037;-66
2021/07/21 08:14:26;;;;;;;10.40;6.32;;;22.50;68.60;;;;;;3571747;40;20134;-66
2021/07/21 08:16:53;;;;;;;13.02;6.65;;;22.60;67.80;;;;;;3564077;40;20044;-66
2021/07/21 08:19:20;;;;;;;9.35;6.45;;;22.60;68.30;;;;;;3568297;40;20443;-66
2021/07/21 08:21:47;;;;;;;9.65;7.03;;;22.70;67.60;;;;;;3564204;40;20049;-66
2021/07/21 08:24:14;;;;;;;9.35;6.75;;;22.70;67.00;;;;;;3564591;40;20048;-66
2021/07/21 08:26:40;;;;;;;11.43;6.22;;;22.70;66.80;;;;;;3566797;40;20414;-66
2021/07/21 08:29:07;;;;;;;8.65;5.93;;;22.80;66.40;;;;;;3568481;40;20069;-66
2021/07/21 08:31:34;;;;;;;9.48;6.45;;;22.80;67.40;;;;;;3565775;40;20049;-66
2021/07/21 08:34:01;;;;;;;8.63;6.40;;;23.00;67.50;;;;;;3566892;40;20033;-63
2021/07/21 08:36:34;;;;;;;7.72;6.10;;;23.20;67.00;;;;;;3569891;40;20469;-63
2021/07/21 08:39:01;;;;;;;8.40;6.05;;;23.30;66.00;;;;;;3565019;40;20038;-62
2021/07/21 08:41:26;;;;;;;7.65;5.82;;;23.30;66.00;;;;;;3567877;40;20085;-63
2021/07/21 08:43:53;;;;;;;13.10;6.32;;;23.40;65.30;;;;;;3565711;40;20824;-65
2021/07/21 08:46:19;;;;;;;7.80;5.47;;;23.40;66.50;;;;;;3565208;40;20026;-64
2021/07/21 08:48:45;;;;;;;10.57;6.68;;;23.50;66.20;;;;;;3567611;40;20107;-64
2021/07/21 08:51:11;;;;;;;8.25;5.68;;;23.60;65.10;;;;;;3565366;40;20077;-65
2021/07/21 08:53:37;;;;;;;6.72;5.00;;;23.60;64.90;;;;;;3567917;40;20025;-64
2021/07/21 08:56:04;;;;;;;7.15;4.40;;;23.70;63.60;;;;;;3568245;40;20037;-64
2021/07/21 08:58:30;;;;;;;9.38;4.60;;;23.70;62.90;;;;;;3566212;40;20444;-66
2021/07/21 09:00:56;;;;;;;13.82;8.65;;;23.60;62.40;;;;;;3567238;40;20021;-68
2021/07/21 09:03:23;;;;;;;8.45;4.63;;;23.50;63.50;;;;;;3569188;40;20037;-63
2021/07/21 09:05:51;;;;;;;5.28;3.67;;;23.50;63.30;;;;;;3567770;40;20032;-64
2021/07/21 09:08:17;;;;;;;5.15;3.63;;;23.60;62.70;;;;;;3566615;40;20761;-64
2021/07/21 09:10:47;;;;;;;7.38;4.10;;;23.60;62.30;;;;;;3566592;40;20048;-63
2021/07/21 09:13:14;;;;;;;5.93;4.05;;;23.60;62.00;;;;;;3568208;40;20032;-63
2021/07/21 09:15:43;;;;;;;6.05;3.92;;;23.60;62.40;;;;;;3564477;40;20040;-68
2021/07/21 09:18:15;;;;;;;5.60;4.03;;;23.70;61.70;;;;;;3566748;40;20023;-67
2021/07/21 09:21:02;;;;;;;5.47;4.13;;;23.70;62.80;;;;;;3567015;40;20021;-64
2021/07/21 09:23:48;;;;;;;4.85;3.42;;;23.70;62.10;;;;;;3569044;40;20048;-63
2021/07/21 09:26:34;;;;;;;5.80;3.72;;;23.80;61.30;;;;;;3566303;40;20037;-64
2021/07/21 09:29:01;;;;;;;7.18;3.58;;;23.80;61.70;;;;;;3563962;40;20028;-63
2021/07/21 09:31:33;;;;;;;5.00;3.50;;;23.80;61.30;;;;;;3563710;40;20042;-64
2021/07/21 09:34:14;;;;;;;3.90;3.13;;;23.90;61.30;;;;;;3564740;40;20068;-63
2021/07/21 09:36:39;;;;;;;4.43;3.45;;;24.00;59.80;;;;;;3566404;40;20816;-64
2021/07/21 09:39:06;;;;;;;4.35;3.10;;;24.10;60.30;;;;;;3566910;40;20043;-63
2021/07/21 09:41:32;;;;;;;4.82;3.92;;;24.30;59.00;;;;;;3569117;40;20033;-64
2021/07/21 09:44:04;;;;;;;5.70;4.55;;;24.40;58.80;;;;;;3567336;40;20040;-64
2021/07/21 09:46:33;;;;;;;9.25;5.82;;;24.50;57.80;;;;;;3566246;40;20029;-63
2021/07/21 09:48:59;;;;;;;7.97;5.95;;;24.60;58.20;;;;;;3566239;40;20044;-64
2021/07/21 09:51:34;;;;;;;7.40;4.95;;;24.70;57.30;;;;;;3568397;40;20029;-63
2021/07/21 09:54:13;;;;;;;7.47;4.88;;;24.70;56.60;;;;;;3564974;40;20474;-63
2021/07/21 09:56:38;;;;;;;10.65;6.90;;;24.70;56.20;;;;;;3564969;40;20646;-64
2021/07/21 09:59:31;;;;;;;6.38;3.90;;;24.70;57.50;;;;;;3568254;40;20102;-64
2021/07/21 10:01:57;;;;;;;6.10;4.05;;;24.70;57.00;;;;;;3564285;40;20115;-64
2021/07/21 10:04:34;;;;;;;7.32;4.70;;;24.70;57.50;;;;;;3568655;40;20092;-64
2021/07/21 10:07:03;;;;;;;6.20;3.33;;;24.80;56.40;;;;;;3566145;40;20477;-65
2021/07/21 10:09:29;;;;;;;3.72;3.10;;;24.90;56.10;;;;;;3565937;40;20723;-68
2021/07/21 10:11:56;;;;;;;6.55;3.28;;;25.00;55.00;;;;;;3568269;40;20025;-68
2021/07/21 10:14:21;;;;;;;6.72;4.53;;;25.00;55.30;;;;;;3566755;40;20031;-68
2021/07/21 10:16:53;;;;;;;4.40;3.92;;;25.00;56.00;;;;;;3564706;40;20017;-69
2021/07/21 10:19:28;;;;;;;3.13;2.70;;;25.00;56.20;;;;;;3563325;40;20090;-68
2021/07/21 10:21:57;;;;;;;5.60;3.60;;;25.10;55.70;;;;;;3566179;40;20033;-63
2021/07/21 10:24:25;;;;;;;7.07;3.40;;;25.10;55.30;;;;;;3566494;40;20267;-63
2021/07/21 10:26:52;;;;;;;3.30;2.60;;;25.10;54.60;;;;;;3566111;40;20036;-63
2021/07/21 10:29:19;;;;;;;5.40;3.72;;;25.10;55.10;;;;;;3565848;40;20033;-64
2021/07/21 10:31:46;;;;;;;4.88;3.65;;;25.20;54.40;;;;;;3563308;40;20079;-63
2021/07/21 10:34:15;;;;;;;4.60;3.15;;;25.30;53.90;;;;;;3568691;40;20041;-64
2021/07/21 10:36:41;;;;;;;3.63;2.90;;;25.30;53.50;;;;;;3566213;40;20038;-65
2021/07/21 10:39:23;;;;;;;4.10;3.03;;;25.20;54.00;;;;;;3561825;40;20029;-64
2021/07/21 10:41:50;;;;;;;2.85;2.40;;;25.10;53.40;;;;;;3566582;40;20451;-64
2021/07/21 10:44:18;;;;;;;2.50;2.30;;;25.00;53.20;;;;;;3565178;40;20033;-64
2021/07/21 10:46:52;;;;;;;4.40;2.47;;;24.90;54.30;;;;;;3567648;40;20424;-63
2021/07/21 10:49:41;;;;;;;4.00;2.80;;;24.70;55.00;;;;;;3567042;40;20059;-63
2021/07/21 11:00:42;;;;;;;3.30;2.30;;;24.70;55.00;;;;;;3564978;40;20296;-63
2021/07/21 11:03:23;;;;;;;5.60;2.20;;;24.80;54.30;;;;;;3565125;40;20051;-63
2021/07/21 11:06:05;;;;;;;2.83;2.42;;;24.90;52.40;;;;;;3555975;40;20114;-68
2021/07/21 11:08:31;;;;;;;2.42;1.80;;;24.80;52.20;;;;;;3565548;40;20083;-67
2021/07/21 11:11:09;;;;;;;2.47;2.08;;;24.70;54.30;;;;;;3566744;40;20115;-66
2021/07/21 11:13:37;;;;;;;5.38;2.83;;;24.60;56.70;;;;;;3564708;40;20099;-67
2021/07/21 11:16:05;;;;;;;3.72;2.42;;;24.60;55.20;;;;;;3565966;40;20033;-67
2021/07/21 11:18:43;;;;;;;3.35;2.35;;;24.60;56.10;;;;;;3567450;40;20048;-62
2021/07/21 11:21:15;;;;;;;5.00;2.33;;;24.60;54.30;;;;;;3565880;40;20037;-63
2021/07/21 11:23:52;;;;;;;6.13;2.63;;;24.60;55.40;;;;;;3564110;40;20025;-62
2021/07/21 11:26:28;;;;;;;4.97;3.13;;;24.70;55.90;;;;;;3566067;40;20037;-62
2021/07/21 11:28:54;;;;;;;;;;;24.70;55.20;;;;;;3565668;40;20049;-62
2021/07/21 11:31:55;;;;;;;6.35;3.10;;;24.60;56.10;;;;;;3564831;40;19998;-63
2021/07/21 11:34:37;;;;;;;6.70;3.15;;;24.50;56.00;;;;;;3568567;40;20030;-64
2021/07/21 11:37:06;;;;;;;5.38;3.92;;;24.40;56.80;;;;;;3566861;40;20083;-64
2021/07/21 11:39:44;;;;;;;7.28;4.43;;;24.30;58.30;;;;;;3566514;40;20049;-62
2021/07/21 11:42:36;;;;;;;7.20;3.85;;;24.30;58.40;;;;;;3553539;40;20029;-62
2021/07/21 11:45:06;;;;;;;7.78;4.88;;;24.30;57.90;;;;;;3562867;40;20025;-62
2021/07/21 11:47:44;;;;;;;7.22;4.15;;;24.40;59.00;;;;;;3567393;40;20415;-62
2021/07/21 11:50:11;;;;;;;5.78;4.38;;;24.40;58.10;;;;;;3564512;40;20049;-61
2021/07/21 11:52:38;;;;;;;7.60;4.65;;;24.30;59.00;;;;;;3564720;40;20049;-62
2021/07/21 11:55:05;;;;;;;7.47;5.10;;;24.20;60.40;;;;;;3567050;40;20023;-66
2021/07/21 11:57:30;;;;;;;8.18;4.88;;;24.20;60.10;;;;;;3567432;40;20599;-66
2021/07/21 11:59:58;;;;;;;6.38;4.80;;;24.20;59.90;;;;;;3566847;40;20037;-67
2021/07/21 12:02:25;;;;;;;8.45;5.05;;;24.20;59.30;;;;;;3563366;40;20459;-61
2021/07/21 12:04:55;;;;;;;7.50;4.35;;;24.20;58.60;;;;;;3567540;40;20033;-62
2021/07/21 12:07:23;;;;;;;5.95;3.97;;;24.00;59.80;;;;;;3568083;40;20065;-62
2021/07/21 12:09:51;;;;;;;10.15;4.35;;;23.90;60.80;;;;;;3563896;40;20109;-67
2021/07/21 12:12:20;;;;;;;5.10;4.10;;;23.80;61.10;;;;;;3566350;40;20076;-67
2021/07/21 12:14:54;;;;;;;6.53;4.45;;;23.80;61.80;;;;;;3567537;40;20155;-67
2021/07/21 12:17:24;;;;;;;6.97;4.03;;;23.60;63.10;;;;;;3565958;40;20131;-65
2021/07/21 12:19:58;;;;;;;6.82;4.43;;;23.50;65.00;;;;;;3566170;40;20072;-66
2021/07/21 12:22:26;;;;;;;5.03;3.92;;;23.40;66.10;;;;;;3567383;40;20033;-66
2021/07/21 12:24:53;;;;;;;7.70;4.60;;;23.30;67.30;;;;;;3567503;40;20135;-67
2021/07/21 12:27:30;;;;;;;4.35;3.78;;;23.20;66.60;;;;;;3567278;40;20056;-65
2021/07/21 12:30:02;;;;;;;6.22;4.18;;;23.10;67.20;;;;;;3563381;40;20325;-66
2021/07/21 12:32:29;;;;;;;5.53;4.28;;;23.20;66.10;;;;;;3565554;40;20040;-66
2021/07/21 12:34:55;;;;;;;5.80;4.57;;;23.20;66.70;;;;;;3567666;40;20051;-66
2021/07/21 12:37:26;;;;;;;6.05;3.97;;;23.30;67.20;;;;;;3565895;40;20337;-66
2021/07/21 12:39:53;;;;;;;8.57;4.40;;;23.40;63.40;;;;;;3568076;40;20037;-66
2021/07/21 12:42:22;;;;;;;6.32;4.20;;;23.60;62.80;;;;;;3567063;40;20060;-65
2021/07/21 12:44:53;;;;;;;7.85;4.53;;;23.80;60.50;;;;;;3565427;40;20064;-62
2021/07/21 12:47:21;;;;;;;7.05;4.03;;;23.90;61.60;;;;;;3566999;40;20045;-62
2021/07/21 12:49:53;;;;;;;6.43;4.45;;;24.10;60.50;;;;;;3566981;40;20073;-66
2021/07/21 12:52:21;;;;;;;5.20;4.22;;;24.20;60.70;;;;;;3563176;40;20044;-70
2021/07/21 12:54:55;;;;;;;5.20;3.95;;;24.40;61.10;;;;;;3565980;40;20052;-66
2021/07/21 12:57:37;;;;;;;5.15;4.10;;;24.40;60.80;;;;;;3566162;40;20022;-65
2021/07/21 13:00:23;;;;;;;6.55;4.10;;;24.40;61.30;;;;;;3568647;40;20079;-66
2021/07/21 13:02:58;;;;;;;5.82;4.40;;;24.30;62.60;;;;;;3565121;40;20052;-65
2021/07/21 13:05:29;;;;;;;6.63;4.75;;;24.30;62.80;;;;;;3565483;40;20037;-66
2021/07/21 13:07:57;;;;;;;5.60;4.05;;;24.30;62.10;;;;;;3566024;40;20051;-66
2021/07/21 13:10:24;;;;;;;6.18;4.28;;;24.40;62.40;;;;;;3564035;40;20033;-66
2021/07/21 13:12:50;;;;;;;6.88;4.20;;;24.50;61.70;;;;;;3566005;40;20044;-62
2021/07/21 13:15:34;;;;;;;7.75;4.18;;;24.60;59.80;;;;;;3563111;40;20029;-62
2021/07/21 13:18:03;;;;;;;6.00;4.68;;;24.50;59.90;;;;;;3566304;40;20744;-62
2021/07/21 13:20:42;;;;;;;4.75;3.85;;;24.50;61.10;;;;;;3566137;40;20040;-62
2021/07/21 13:23:23;;;;;;;5.57;4.32;;;24.40;60.40;;;;;;3566206;40;20043;-62
2021/07/21 13:26:07;;;;;;;7.25;4.00;;;24.30;61.80;;;;;;3565960;40;20037;-62
2021/07/21 13:28:41;;;;;;;5.18;4.07;;;24.20;63.60;;;;;;3564772;40;20118;-62
2021/07/21 13:31:27;;;;;;;5.78;4.10;;;24.10;63.90;;;;;;3564296;40;20123;-63
2021/07/21 13:33:57;;;;;;;5.65;4.45;;;24.00;63.70;;;;;;3561357;40;20077;-62
2021/07/21 13:36:26;;;;;;;6.78;4.72;;;24.00;63.00;;;;;;3564406;40;21006;-62
2021/07/21 13:39:01;;;;;;;7.57;4.13;;;24.00;63.20;;;;;;3566183;40;20048;-63
2021/07/21 13:41:35;;;;;;;5.77;4.27;;;24.10;62.50;;;;;;3562758;40;20120;-66
2021/07/21 13:44:05;;;;;;;7.97;5.20;;;24.30;60.80;;;;;;3555602;40;20045;-66
2021/07/21 13:46:48;;;;;;;6.47;4.70;;;24.40;59.20;;;;;;3564076;40;20298;-62
2021/07/21 13:49:15;;;;;;;5.50;3.95;;;24.50;59.00;;;;;;3566180;40;20029;-62
2021/07/21 13:51:45;;;;;;;8.45;4.60;;;24.60;58.10;;;;;;3564080;40;20035;-63
2021/07/21 13:54:12;;;;;;;5.68;4.40;;;24.60;57.40;;;;;;3562708;40;20139;-62
2021/07/21 13:56:39;;;;;;;6.10;4.55;;;24.50;59.10;;;;;;3563600;40;20052;-62
2021/07/21 13:59:05;;;;;;;5.95;4.20;;;24.40;59.30;;;;;;3564127;40;20073;-62
2021/07/21 14:01:31;;;;;;;5.82;4.60;;;24.30;61.70;;;;;;3567269;40;20041;-62
2021/07/21 14:03:59;;;;;;;6.85;4.53;;;24.20;60.20;;;;;;3563763;40;20037;-66
2021/07/21 14:06:27;;;;;;;6.55;4.65;;;24.00;61.00;;;;;;3566670;40;20040;-62
2021/07/21 14:08:54;;;;;;;5.72;4.28;;;23.80;64.20;;;;;;3555720;40;20037;-62
2021/07/21 14:11:19;;;;;;;5.82;4.43;;;23.70;64.90;;;;;;3563602;40;20076;-62
2021/07/21 14:13:45;;;;;;;5.82;5.03;;;23.50;65.30;;;;;;3565351;40;20310;-62
2021/07/21 14:16:11;;;;;;;6.15;4.72;;;23.40;65.90;;;;;;3563740;40;20056;-62
2021/07/21 14:18:36;;;;;;;6.68;4.18;;;23.20;65.70;;;;;;3567672;40;20025;-67
2021/07/21 14:21:02;;;;;;;6.32;4.63;;;23.20;67.20;;;;;;3565807;40;20026;-67
2021/07/21 14:23:28;;;;;;;5.20;4.20;;;23.00;67.20;;;;;;3566162;40;20036;-66
2021/07/21 14:25:54;;;;;;;6.15;4.20;;;22.90;68.00;;;;;;3568086;40;20038;-66
2021/07/21 14:28:20;;;;;;;5.10;4.05;;;22.80;68.20;;;;;;3567227;40;20029;-67
2021/07/21 14:30:45;;;;;;;6.35;4.38;;;22.70;67.80;;;;;;3566899;40;20040;-66
2021/07/21 14:33:11;;;;;;;6.22;4.30;;;22.70;69.10;;;;;;3565089;40;20033;-66
2021/07/21 14:35:38;;;;;;;7.00;4.50;;;22.60;69.50;;;;;;3566148;40;20032;-66
2021/07/21 14:38:04;;;;;;;12.43;4.30;;;22.60;70.00;;;;;;3564399;40;20028;-67
2021/07/21 14:40:29;;;;;;;5.85;4.05;;;22.50;70.40;;;;;;3566616;40;20052;-66
2021/07/21 14:42:55;;;;;;;6.50;3.92;;;22.50;70.50;;;;;;3562713;40;20123;-66
2021/07/21 14:45:21;;;;;;;5.53;4.30;;;22.40;70.70;;;;;;3567845;40;20029;-66
2021/07/21 14:47:46;;;;;;;6.88;4.82;;;22.30;71.30;;;;;;3564938;40;20391;-65
2021/07/21 14:50:13;;;;;;;6.85;4.25;;;22.20;72.30;;;;;;3566531;40;20049;-62
2021/07/21 14:52:39;;;;;;;5.68;4.25;;;22.20;72.30;;;;;;3564832;40;20091;-63
2021/07/21 14:55:06;;;;;;;7.65;3.65;;;22.20;72.80;;;;;;3567418;40;20039;-66
2021/07/21 14:57:31;;;;;;;8.57;4.47;;;22.20;72.60;;;;;;3564221;40;20111;-66
2021/07/21 14:59:57;;;;;;;6.55;4.13;;;22.10;72.90;;;;;;3564435;40;20033;-67
2021/07/21 15:02:23;;;;;;;6.70;4.38;;;22.10;73.40;;;;;;3563084;40;20037;-62
2021/07/21 15:04:49;;;;;;;5.30;3.97;;;22.10;73.20;;;;;;3565629;40;20057;-66
2021/07/21 15:07:15;;;;;;;7.22;4.43;;;22.10;73.50;;;;;;3567163;40;20104;-66
2021/07/21 15:09:40;;;;;;;5.75;3.97;;;22.10;73.30;;;;;;3567355;40;20029;-62
2021/07/21 15:12:06;;;;;;;8.70;4.07;;;22.20;73.90;;;;;;3564041;40;20119;-62
2021/07/21 15:14:32;;;;;;;6.78;4.00;;;22.20;73.40;;;;;;3564918;40;20042;-62
2021/07/21 15:16:58;;;;;;;6.93;4.22;;;22.20;73.40;;;;;;3563790;40;20284;-60
2021/07/21 15:19:24;;;;;;;5.90;4.07;;;22.30;72.80;;;;;;3565606;40;20103;-60
2021/07/21 15:21:50;;;;;;;7.18;4.80;;;22.40;70.50;;;;;;3565299;40;20065;-61
2021/07/21 15:24:16;;;;;;;6.80;4.40;;;22.50;70.30;;;;;;3565202;40;20346;-62
2021/07/21 15:26:44;;;;;;;8.10;4.72;;;22.50;69.40;;;;;;3562539;40;20032;-63
2021/07/21 15:29:09;;;;;;;8.32;4.93;;;22.60;69.20;;;;;;3567773;40;20039;-63
2021/07/21 15:31:38;;;;;;;7.93;5.47;;;22.70;69.20;;;;;;3565206;40;20022;-62
2021/07/21 15:34:06;;;;;;;9.30;5.57;;;22.80;69.10;;;;;;3566376;40;20034;-64
2021/07/21 15:36:32;;;;;;;11.10;6.68;;;22.80;69.00;;;;;;3568832;40;20037;-65
2021/07/21 15:38:58;;;;;;;8.50;5.78;;;22.90;67.50;;;;;;3566925;40;20038;-63
2021/07/21 15:41:24;;;;;;;12.13;7.68;;;22.90;67.80;;;;;;3567938;40;20032;-61
2021/07/21 15:43:49;;;;;;;8.52;5.78;;;22.90;68.50;;;;;;3557799;40;20422;-61
2021/07/21 15:46:15;;;;;;;8.73;5.55;;;22.90;68.60;;;;;;3567522;40;20494;-66
2021/07/21 15:48:41;;;;;;;7.65;5.10;;;22.90;66.00;;;;;;3565386;40;20072;-61
2021/07/21 15:51:07;;;;;;;7.03;5.00;;;22.90;68.40;;;;;;3565310;40;20450;-61
2021/07/21 15:53:33;;;;;;;7.07;5.13;;;22.90;67.80;;;;;;3569095;40;20039;-61
2021/07/21 15:55:58;;;;;;;6.55;5.03;;;22.90;68.80;;;;;;3567390;40;20681;-61
2021/07/21 15:58:24;;;;;;;8.30;5.20;;;22.90;69.10;;;;;;3565871;40;20029;-62
2021/07/21 16:00:50;;;;;;;7.13;5.30;;;22.90;70.40;;;;;;3566127;40;20025;-62
2021/07/21 16:03:15;;;;;;;8.27;5.13;;;22.90;70.40;;;;;;3566182;40;20364;-61
2021/07/21 16:05:44;;;;;;;8.88;5.10;;;22.90;68.20;;;;;;3557111;40;20033;-79
2021/07/21 16:08:10;;;;;;;7.93;5.22;;;22.90;67.90;;;;;;3550526;40;20023;-62
2021/07/21 16:10:36;;;;;;;6.80;5.55;;;23.00;68.90;;;;;;3558832;40;20029;-61
2021/07/21 16:13:03;;;;;;;7.78;5.35;;;23.00;68.40;;;;;;3557225;40;20020;-61
2021/07/21 16:15:30;;;;;;;7.30;5.25;;;23.00;68.00;;;;;;3559876;40;20032;-61
2021/07/21 16:17:56;;;;;;;7.13;5.20;;;23.00;66.90;;;;;;3565729;40;20056;-61
2021/07/21 16:20:22;;;;;;;9.00;5.50;;;23.10;67.50;;;;;;3563982;40;20025;-63
2021/07/21 16:22:49;;;;;;;7.40;5.00;;;23.10;67.00;;;;;;3561051;40;20103;-63
2021/07/21 16:25:22;;;;;;;11.05;5.10;;;23.10;67.60;;;;;;3566794;40;20170;-62
2021/07/21 16:27:49;;;;;;;8.32;5.43;;;23.00;69.00;;;;;;3564845;40;20049;-62
2021/07/21 16:30:14;;;;;;;9.23;5.55;;;22.90;70.40;;;;;;3566513;40;20025;-62
2021/07/21 16:32:41;;;;;;;6.88;5.63;;;22.90;70.70;;;;;;3559672;40;20033;-59
2021/07/21 16:35:09;;;;;;;11.10;5.97;;;22.90;68.90;;;;;;3568180;40;20393;-62
2021/07/21 16:37:35;;;;;;;10.70;6.63;;;22.90;67.40;;;;;;3566007;40;20134;-62
2021/07/21 16:40:03;;;;;;;8.07;6.00;;;23.00;68.10;;;;;;3567851;40;20029;-60
2021/07/21 16:42:29;;;;;;;9.48;6.10;;;23.00;68.60;;;;;;3568341;40;20145;-63
2021/07/21 16:44:55;;;;;;;8.70;5.82;;;23.00;67.30;;;;;;3570048;40;20414;-60
2021/07/21 16:47:20;;;;;;;7.85;5.97;;;23.00;68.80;;;;;;3567080;40;20037;-60
2021/07/21 16:49:46;;;;;;;7.55;5.90;;;23.00;70.40;;;;;;3568143;40;20167;-64
2021/07/21 16:52:12;;;;;;;8.27;6.35;;;22.90;71.10;;;;;;3558122;40;20026;-63
2021/07/21 16:54:37;;;;;;;8.35;5.60;;;22.90;70.90;;;;;;3564575;40;20028;-63
2021/07/21 16:57:04;;;;;;;9.38;5.85;;;22.90;71.50;;;;;;3567652;40;20041;-60
2021/07/21 16:59:29;;;;;;;7.63;6.05;;;22.90;72.60;;;;;;3568616;40;20036;-64
2021/07/21 17:01:55;;;;;;;7.63;6.13;;;22.90;72.90;;;;;;3568091;40;20026;-64
2021/07/21 17:04:21;;;;;;;9.32;5.40;;;22.90;72.60;;;;;;3567219;40;20033;-63
2021/07/21 17:06:46;;;;;;;9.32;6.10;;;22.80;72.00;;;;;;3566663;40;20036;-64
2021/07/21 17:09:12;;;;;;;7.82;5.45;;;22.70;72.40;;;;;;3566539;40;20573;-64
2021/07/21 17:11:38;;;;;;;8.35;5.97;;;22.70;73.00;;;;;;3567509;40;20021;-63
2021/07/21 17:14:05;;;;;;;9.48;6.03;;;22.60;72.80;;;;;;3566198;40;20060;-63
2021/07/21 17:16:32;;;;;;;14.35;6.32;;;22.60;73.00;;;;;;3565962;40;20042;-63
2021/07/21 17:18:59;;;;;;;9.40;6.50;;;22.60;72.40;;;;;;3568829;40;20021;-63
2021/07/21 17:21:25;;;;;;;8.73;5.63;;;22.50;72.60;;;;;;3568945;40;20017;-64
2021/07/21 17:23:51;;;;;;;11.57;6.80;;;22.40;73.30;;;;;;3566675;40;20467;-62
2021/07/21 17:26:17;;;;;;;9.57;6.40;;;22.30;71.20;;;;;;3566755;40;20026;-63
2021/07/21 17:28:44;;;;;;;11.77;7.60;;;22.20;70.70;;;;;;3567976;40;20407;-61
2021/07/21 17:31:10;;;;;;;12.13;6.53;;;22.20;71.10;;;;;;3565423;40;20025;-64
2021/07/21 17:33:35;;;;;;;15.75;7.43;;;22.10;70.30;;;;;;3568071;40;20039;-63
2021/07/21 17:36:02;;;;;;;8.90;6.78;;;22.00;70.80;;;;;;3564566;40;20671;-63
2021/07/21 17:38:28;;;;;;;12.18;6.88;;;22.00;71.20;;;;;;3565773;40;20021;-63
2021/07/21 17:40:53;;;;;;;10.02;6.70;;;22.00;71.40;;;;;;3554664;40;20021;-63
2021/07/21 17:43:19;;;;;;;9.18;6.68;;;21.90;72.70;;;;;;3565114;40;20033;-63
2021/07/21 17:45:45;;;;;;;9.68;6.30;;;21.80;72.90;;;;;;3568062;40;20036;-63
2021/07/21 17:48:11;;;;;;;10.80;7.50;;;21.80;73.50;;;;;;3568174;40;20029;-60
2021/07/21 17:50:37;;;;;;;11.70;6.85;;;21.80;73.70;;;;;;3558602;40;20033;-60
2021/07/21 17:53:03;;;;;;;8.65;6.60;;;21.70;73.60;;;;;;3567669;40;20045;-60
2021/07/21 17:55:29;;;;;;;9.85;7.13;;;21.70;73.90;;;;;;3555268;40;20483;-60
2021/07/21 17:57:55;;;;;;;9.80;7.55;;;21.70;74.50;;;;;;3556078;40;20111;-60
2021/07/21 18:00:23;;;;;;;8.20;6.63;;;21.60;75.00;;;;;;3566874;40;20030;-60
2021/07/21 18:02:49;;;;;;;10.70;7.10;;;21.60;75.40;;;;;;3564818;40;20056;-64
2021/07/21 18:05:19;;;;;;;10.48;7.13;;;21.60;75.00;;;;;;3563463;40;20695;-66
2021/07/21 18:07:53;;;;;;;9.55;6.95;;;21.50;73.90;;;;;;3565465;40;20029;-63
2021/07/21 18:10:20;;;;;;;10.88;7.00;;;21.50;74.40;;;;;;3567751;40;20621;-64
2021/07/21 18:12:46;;;;;;;9.60;6.72;;;21.50;75.00;;;;;;3564520;40;20084;-63
2021/07/21 18:15:12;;;;;;;13.70;6.95;;;21.50;75.20;;;;;;3567633;40;20071;-63
2021/07/21 18:17:38;;;;;;;10.68;6.78;;;21.40;75.10;;;;;;3562363;40;20033;-63
2021/07/21 18:20:05;;;;;;;11.15;7.03;;;21.40;75.80;;;;;;3563438;40;20604;-63
2021/07/21 18:22:32;;;;;;;10.13;7.30;;;21.40;75.20;;;;;;3566829;40;20067;-60
2021/07/21 18:24:58;;;;;;;9.90;6.97;;;21.40;75.30;;;;;;3565207;40;20021;-59
2021/07/21 18:27:24;;;;;;;10.15;7.10;;;21.30;75.50;;;;;;3565640;40;20024;-62
2021/07/21 18:29:50;;;;;;;10.77;6.97;;;21.20;76.20;;;;;;3555700;40;20029;-61
2021/07/21 18:32:15;;;;;;;9.70;7.00;;;21.30;76.70;;;;;;3564856;40;20043;-61
2021/07/21 18:34:42;;;;;;;9.23;6.82;;;21.20;76.60;;;;;;3564738;40;20044;-60
2021/07/21 18:37:07;;;;;;;11.90;7.25;;;21.20;76.20;;;;;;3558851;40;20041;-60
2021/07/21 18:39:33;;;;;;;11.25;6.95;;;21.10;76.70;;;;;;3563871;40;20406;-63
2021/07/21 18:41:59;;;;;;;8.98;7.22;;;21.10;77.00;;;;;;3564535;40;20036;-63
2021/07/21 18:44:25;;;;;;;10.43;6.75;;;21.10;77.00;;;;;;3555953;40;20319;-63
2021/07/21 18:46:51;;;;;;;10.50;7.10;;;21.10;76.70;;;;;;3564925;40;20609;-63
2021/07/21 18:49:17;;;;;;;12.25;6.75;;;21.00;76.80;;;;;;3561715;40;20021;-64
2021/07/21 18:51:42;;;;;;;10.05;7.72;;;21.00;77.80;;;;;;3567190;40;20036;-64
2021/07/21 18:54:08;;;;;;;10.10;7.28;;;21.00;77.10;;;;;;3567900;40;20040;-64
2021/07/21 18:56:35;;;;;;;10.57;7.60;;;21.00;77.20;;;;;;3565342;40;20045;-64
2021/07/21 18:59:04;;;;;;;12.07;7.20;;;21.00;77.40;;;;;;3564199;40;20034;-61
2021/07/21 19:01:30;;;;;;;11.05;7.80;;;21.00;77.00;;;;;;3563370;40;20678;-64
2021/07/21 19:03:55;;;;;;;10.10;7.80;;;20.90;77.10;;;;;;3566721;40;20123;-64
2021/07/21 19:06:21;;;;;;;9.70;7.60;;;20.90;77.40;;;;;;3556867;40;20116;-63
2021/07/21 19:08:47;;;;;;;9.55;7.43;;;20.80;78.70;;;;;;3567227;40;20445;-63
2021/07/21 19:11:14;;;;;;;13.65;7.90;;;20.80;78.20;;;;;;3563797;40;20045;-60
2021/07/21 19:13:40;;;;;;;14.45;7.47;;;20.80;78.50;;;;;;3565068;40;20063;-60
2021/07/21 19:16:06;;;;;;;9.85;7.00;;;20.80;78.70;;;;;;3562997;40;20025;-61
2021/07/21 19:18:32;;;;;;;13.02;7.70;;;20.70;78.90;;;;;;3564874;40;20041;-61
2021/07/21 19:20:58;;;;;;;12.38;7.32;;;20.70;78.70;;;;;;3564112;40;20130;-60
2021/07/21 19:23:24;;;;;;;11.85;7.47;;;20.70;79.00;;;;;;3566453;40;20619;-60
2021/07/21 19:25:50;;;;;;;11.90;7.88;;;20.70;79.20;;;;;;3567136;40;20112;-60
2021/07/21 19:28:15;;;;;;;11.20;7.90;;;20.70;79.40;;;;;;3563404;40;20423;-61
2021/07/21 19:30:41;;;;;;;9.65;7.80;;;20.70;79.30;;;;;;3563453;40;20030;-61
2021/07/21 19:33:07;;;;;;;10.32;7.45;;;20.70;79.10;;;;;;3566870;40;20055;-61
2021/07/21 19:35:33;;;;;;;13.90;8.45;;;20.70;79.10;;;;;;3564920;40;20492;-60
2021/07/21 19:37:59;;;;;;;11.95;8.15;;;20.60;79.00;;;;;;3564912;40;20100;-61
2021/07/21 19:40:25;;;;;;;10.88;7.25;;;20.60;79.30;;;;;;3566156;40;20037;-60
2021/07/21 19:42:51;;;;;;;10.50;7.45;;;20.60;79.50;;;;;;3564166;40;20036;-61
2021/07/21 19:45:16;;;;;;;10.88;7.68;;;20.60;79.70;;;;;;3565689;40;20030;-61
2021/07/21 19:47:43;;;;;;;10.60;7.25;;;20.60;79.40;;;;;;3562992;40;20039;-61
2021/07/21 19:50:11;;;;;;;10.00;7.03;;;20.60;79.20;;;;;;3566895;40;20033;-63
2021/07/21 19:52:37;;;;;;;11.27;8.00;;;20.60;79.40;;;;;;3556004;40;20073;-61
2021/07/21 19:55:05;;;;;;;8.63;6.93;;;20.60;79.70;;;;;;3562470;40;20037;-61
2021/07/21 19:57:31;;;;;;;12.73;7.78;;;20.60;79.70;;;;;;3564393;40;20552;-60
2021/07/21 19:59:57;;;;;;;9.63;7.63;;;20.50;79.50;;;;;;3564730;40;20088;-60
2021/07/21 20:02:23;;;;;;;13.73;8.15;;;20.50;79.60;;;;;;3563447;40;20037;-63
2021/07/21 20:04:48;;;;;;;10.18;7.82;;;20.50;79.80;;;;;;3564241;40;20438;-63